KBHM/BHM METAR and TAF weather

Enter ICAO airport designator
Station Type Date Time Source
KBHM METAR 2022/05/25 00:53 UTC NOAA

KBHM 250053Z 00000KT 10SM BKN100 OVC250 22/19 A3003 RMK AO2 SLP162 T02170194


Station Type Date Time Source
KBHM Decoded METAR 2022/05/25 00:53 UTC NOAA

BIRMINGHAM INT'L AIRPORT, AL, United States (KBHM) 33-34N 086-45W 197M
May 24, 2022 - 08:53 PM EDT / 2022.05.25 0053 UTC
Wind: Calm:0
Visibility: 10 mile(s):0
Sky conditions: overcast
Temperature: 71.1 F (21.7 C)
Dew Point: 66.9 F (19.4 C)
Relative Humidity: 86%
Pressure (altimeter): 30.03 in. Hg (1016 hPa)
ob: KBHM 250053Z 00000KT 10SM BKN100 OVC250 22/19 A3003 RMK AO2 SLP162 T02170194
cycle: 1

Station Type Date Time Source
KBHM TAF 2022/05/24 21:06 UTC NOAA

TAF
AMD KBHM 242103Z 2421/2518 16010KT P6SM VCSH BKN060
TEMPO 2422/2423 VRB10G18KT 4SM TSRA OVC030CB
FM250200 14007KT P6SM SCT050 BKN250
FM251000 14006KT P6SM BKN025
FM251200 13007KT P6SM OVC015
FM251600 15010G19KT P6SM BKN035

Example: see airport list